Time;durP1;ratioP1;P1;durP2;ratioP2;P2;SDS_P1;SDS_P2;PMS_P1;PMS_P2;Temp;Humidity;BMP_temperature;BMP_pressure;BME280_temperature;BME280_humidity;BME280_pressure;Samples;Min_cycle;Max_cycle;Signal;HPM_P1;HPM_P2
2022/05/16 00:00:25;;;;;;;3.78;1.50;;;19.80;51.10;;;;;;5094370;28;20084;-38
2022/05/16 00:02:52;;;;;;;8.40;2.22;;;19.80;51.20;;;;;;5093244;28;20089;-38
2022/05/16 00:05:19;;;;;;;5.00;1.90;;;19.70;51.30;;;;;;5093502;28;20024;-39
2022/05/16 00:07:44;;;;;;;4.53;1.90;;;19.70;51.50;;;;;;5094010;28;20035;-38
2022/05/16 00:10:10;;;;;;;3.30;1.55;;;19.70;51.60;;;;;;5094352;28;20028;-38
2022/05/16 00:12:37;;;;;;;3.90;1.70;;;19.70;52.30;;;;;;5094166;28;20047;-38
2022/05/16 00:15:04;;;;;;;4.00;1.90;;;19.60;51.60;;;;;;5094386;28;20103;-39
2022/05/16 00:17:30;;;;;;;5.38;1.90;;;19.60;51.80;;;;;;5094458;28;20429;-39
2022/05/16 00:19:55;;;;;;;6.32;1.70;;;19.50;51.90;;;;;;5094205;28;20020;-39
2022/05/16 00:22:21;;;;;;;6.25;2.03;;;19.50;52.00;;;;;;5092799;28;20024;-39
2022/05/16 00:24:46;;;;;;;5.15;1.90;;;19.50;52.20;;;;;;5094136;28;20031;-39
2022/05/16 00:27:12;;;;;;;5.53;2.00;;;19.40;52.20;;;;;;5094025;28;20028;-39
2022/05/16 00:29:39;;;;;;;5.18;2.08;;;19.40;52.30;;;;;;5093969;28;20040;-38
2022/05/16 00:32:05;;;;;;;6.45;2.00;;;19.40;52.50;;;;;;5093798;28;20026;-39
2022/05/16 00:34:31;;;;;;;5.18;2.10;;;19.40;52.50;;;;;;5092294;28;20071;-39
2022/05/16 00:36:56;;;;;;;5.25;2.10;;;19.40;52.60;;;;;;5093583;28;20052;-39
2022/05/16 00:39:23;;;;;;;7.22;1.83;;;19.30;53.30;;;;;;5093750;28;20024;-40
2022/05/16 00:41:50;;;;;;;6.00;2.20;;;19.30;52.80;;;;;;5093363;28;20065;-39
2022/05/16 00:44:18;;;;;;;4.40;2.20;;;19.30;52.90;;;;;;5093173;28;20020;-41
2022/05/16 00:46:43;;;;;;;5.95;1.98;;;19.30;53.00;;;;;;5093261;28;20051;-38
2022/05/16 00:49:29;;;;;;;5.93;2.60;;;19.20;53.10;;;;;;5093571;28;20510;-37
2022/05/16 00:51:55;;;;;;;6.65;2.42;;;19.20;53.20;;;;;;5093073;28;20028;-36
2022/05/16 00:54:30;;;;;;;5.38;2.10;;;19.10;53.20;;;;;;5093269;28;20048;-38
2022/05/16 00:57:01;;;;;;;4.53;2.10;;;19.10;53.40;;;;;;5092870;28;20448;-38
2022/05/16 00:59:51;;;;;;;6.70;2.20;;;19.10;53.50;;;;;;5091633;28;20036;-38
2022/05/16 01:05:05;;;;;;;5.97;1.95;;;19.00;53.60;;;;;;5092182;28;20089;-39
2022/05/16 01:07:34;;;;;;;4.53;1.80;;;18.90;54.30;;;;;;5093210;28;20077;-39
2022/05/16 01:10:01;;;;;;;5.03;2.08;;;18.90;53.80;;;;;;5093094;28;20107;-40
2022/05/16 01:12:39;;;;;;;5.40;2.03;;;18.90;53.90;;;;;;5092828;28;20035;-38
2022/05/16 01:15:11;;;;;;;5.38;2.42;;;18.90;54.10;;;;;;5092349;28;20015;-38
2022/05/16 01:17:37;;;;;;;5.22;1.90;;;18.90;54.20;;;;;;5092714;28;20028;-37
2022/05/16 01:20:04;;;;;;;4.28;2.00;;;18.80;54.20;;;;;;5092794;28;20023;-37
2022/05/16 01:22:35;;;;;;;4.70;2.17;;;18.80;54.30;;;;;;5092566;28;20050;-37
2022/05/16 01:25:27;;;;;;;8.90;2.10;;;18.80;54.40;;;;;;5092536;28;20020;-38
2022/05/16 01:28:04;;;;;;;5.35;1.98;;;18.70;54.50;;;;;;5083855;28;20097;-38
2022/05/16 01:30:33;;;;;;;5.03;1.98;;;18.70;54.50;;;;;;5092469;28;20016;-39
2022/05/16 01:32:59;;;;;;;4.00;1.80;;;18.70;54.50;;;;;;5091052;28;20054;-37
2022/05/16 01:35:29;;;;;;;5.10;1.88;;;18.70;54.50;;;;;;5092153;28;20036;-39
2022/05/16 01:40:59;;;;;;;7.18;1.92;;;18.70;54.70;;;;;;5058138;28;20073;-37
2022/05/16 01:43:31;;;;;;;4.60;2.00;;;18.70;54.80;;;;;;5092563;28;20071;-39
2022/05/16 01:45:57;;;;;;;5.07;2.10;;;18.60;54.80;;;;;;5092552;28;20028;-39
2022/05/16 01:48:23;;;;;;;7.75;2.47;;;18.70;54.90;;;;;;5092291;28;20031;-38
2022/05/16 01:50:50;;;;;;;5.35;1.90;;;18.60;54.90;;;;;;5092185;28;20136;-37
2022/05/16 01:53:17;;;;;;;4.72;2.10;;;18.60;55.00;;;;;;5092309;28;20097;-38
2022/05/16 01:55:43;;;;;;;6.63;2.10;;;18.60;55.70;;;;;;5092098;28;20470;-39
2022/05/16 01:58:09;;;;;;;4.32;2.00;;;18.60;55.10;;;;;;5092057;28;20048;-38
2022/05/16 02:00:36;;;;;;;5.22;2.00;;;18.50;55.10;;;;;;5092032;28;20069;-36
2022/05/16 02:03:05;;;;;;;6.80;2.10;;;18.60;55.20;;;;;;5092156;28;20089;-37
2022/05/16 02:05:31;;;;;;;6.25;2.10;;;18.50;55.30;;;;;;5091972;28;20028;-38
2022/05/16 02:07:57;;;;;;;4.30;2.00;;;18.50;55.30;;;;;;5092338;28;20020;-37
2022/05/16 02:10:24;;;;;;;5.85;2.10;;;18.50;55.40;;;;;;5092493;28;20029;-37
2022/05/16 02:12:50;;;;;;;5.95;2.10;;;18.50;55.40;;;;;;5092801;28;20073;-37
2022/05/16 02:15:19;;;;;;;5.03;1.90;;;18.50;55.50;;;;;;5092919;28;20090;-37
2022/05/16 02:17:45;;;;;;;4.20;2.03;;;18.50;55.60;;;;;;5092300;28;20017;-37
2022/05/16 02:20:11;;;;;;;5.75;1.95;;;18.40;55.60;;;;;;5092148;28;20115;-38
2022/05/16 02:25:21;;;;;;;5.90;2.17;;;18.40;55.80;;;;;;5092099;28;20058;-39
2022/05/16 02:27:49;;;;;;;6.63;2.20;;;18.40;55.80;;;;;;5093966;28;20051;-38
2022/05/16 02:30:15;;;;;;;6.45;1.90;;;18.40;55.90;;;;;;5096001;28;20048;-38
2022/05/16 02:32:40;;;;;;;5.32;2.10;;;18.30;55.90;;;;;;5095692;28;20059;-37
2022/05/16 02:35:06;;;;;;;5.03;2.10;;;18.30;56.00;;;;;;5096081;28;20020;-37
2022/05/16 02:37:32;;;;;;;4.30;2.00;;;18.30;56.00;;;;;;5095677;28;20032;-37
2022/05/16 02:39:58;;;;;;;8.13;2.30;;;18.30;56.00;;;;;;5095687;28;20025;-38
2022/05/16 02:42:24;;;;;;;5.35;1.85;;;18.30;56.70;;;;;;5095427;28;20024;-39
2022/05/16 02:44:52;;;;;;;5.18;2.15;;;18.20;56.20;;;;;;5095617;28;20391;-37
2022/05/16 02:47:20;;;;;;;6.75;2.35;;;18.20;56.20;;;;;;5094150;28;20036;-39
2022/05/16 02:49:45;;;;;;;7.63;2.10;;;18.20;56.30;;;;;;5095381;28;20035;-37
2022/05/16 02:52:11;;;;;;;5.20;2.10;;;18.20;56.40;;;;;;5095760;28;20016;-38
2022/05/16 02:54:37;;;;;;;5.18;2.05;;;18.20;56.40;;;;;;5095694;28;20049;-37
2022/05/16 02:57:04;;;;;;;4.30;1.98;;;18.20;56.50;;;;;;5095310;28;20024;-38
2022/05/16 02:59:33;;;;;;;5.15;2.20;;;18.10;56.50;;;;;;5095332;28;20034;-38
2022/05/16 03:02:07;;;;;;;6.05;2.40;;;18.10;56.50;;;;;;5094046;28;20024;-37
2022/05/16 03:04:33;;;;;;;5.80;2.00;;;18.10;56.60;;;;;;5095273;28;20141;-38
2022/05/16 03:06:59;;;;;;;4.68;2.10;;;18.10;56.70;;;;;;5095267;28;20452;-37
2022/05/16 03:09:26;;;;;;;5.35;2.17;;;18.10;56.80;;;;;;5095348;28;20055;-37
2022/05/16 03:11:52;;;;;;;3.97;1.98;;;18.10;56.80;;;;;;5095283;28;20467;-39
2022/05/16 03:14:18;;;;;;;6.60;2.40;;;18.10;56.90;;;;;;5095177;28;20046;-38
2022/05/16 03:16:44;;;;;;;4.65;2.10;;;18.00;57.00;;;;;;5095445;28;20438;-37
2022/05/16 03:19:10;;;;;;;4.65;2.20;;;18.00;57.10;;;;;;5094989;28;20105;-38
2022/05/16 03:21:36;;;;;;;4.97;2.15;;;17.90;57.10;;;;;;5094583;28;20051;-37
2022/05/16 03:24:01;;;;;;;4.93;2.17;;;17.90;57.20;;;;;;5094908;28;20028;-38
2022/05/16 03:26:27;;;;;;;5.88;2.13;;;17.90;57.30;;;;;;5094608;28;20027;-36
2022/05/16 03:28:53;;;;;;;6.78;2.38;;;17.90;57.40;;;;;;5094791;28;20020;-37
2022/05/16 03:31:19;;;;;;;5.32;2.55;;;17.90;57.50;;;;;;5095098;28;20103;-38
2022/05/16 03:33:46;;;;;;;6.03;2.22;;;17.90;57.50;;;;;;5095113;28;20540;-36
2022/05/16 03:36:11;;;;;;;5.53;2.08;;;17.80;57.50;;;;;;5094771;28;20028;-38
2022/05/16 03:41:21;;;;;;;6.07;2.13;;;17.80;57.70;;;;;;5094888;28;20078;-37
2022/05/16 03:43:47;;;;;;;5.38;2.20;;;17.80;57.70;;;;;;5094646;28;20019;-38
2022/05/16 03:46:13;;;;;;;7.00;2.45;;;17.80;57.80;;;;;;5094548;28;20024;-38
2022/05/16 03:48:39;;;;;;;8.02;2.20;;;17.70;57.90;;;;;;5094534;28;20024;-41
2022/05/16 03:51:06;;;;;;;4.90;1.98;;;17.70;58.00;;;;;;5094671;28;20035;-38
2022/05/16 03:53:35;;;;;;;5.03;2.38;;;17.70;58.00;;;;;;5094355;28;20025;-37
2022/05/16 03:56:01;;;;;;;5.00;2.20;;;17.70;58.10;;;;;;5094250;28;20024;-38
2022/05/16 03:58:26;;;;;;;5.93;1.90;;;17.70;58.20;;;;;;5094485;28;20051;-37
2022/05/16 04:00:52;;;;;;;6.65;2.30;;;17.60;58.20;;;;;;5094733;28;20028;-39
2022/05/16 04:03:17;;;;;;;4.95;2.10;;;17.60;58.30;;;;;;5093996;28;20067;-37
2022/05/16 04:05:43;;;;;;;6.78;2.45;;;17.60;58.30;;;;;;5094012;28;20060;-39
2022/05/16 04:08:09;;;;;;;7.90;2.30;;;17.60;58.40;;;;;;5092717;28;20024;-38
2022/05/16 04:10:35;;;;;;;4.45;1.95;;;17.60;58.40;;;;;;5094087;28;20135;-38
2022/05/16 04:13:01;;;;;;;3.45;2.03;;;17.70;58.50;;;;;;5092666;28;20385;-38
2022/05/16 04:15:26;;;;;;;5.35;2.70;;;17.70;58.50;;;;;;5093795;28;20027;-38
2022/05/16 04:17:52;;;;;;;6.65;2.90;;;17.70;58.50;;;;;;5093924;28;20093;-39
2022/05/16 04:20:20;;;;;;;6.28;2.42;;;17.70;58.50;;;;;;5093692;28;20016;-37
2022/05/16 04:22:47;;;;;;;5.10;2.10;;;17.70;58.60;;;;;;5093557;28;20134;-37
2022/05/16 04:25:16;;;;;;;5.63;2.42;;;17.70;58.60;;;;;;5094328;28;20024;-40
2022/05/16 04:27:42;;;;;;;4.88;2.30;;;17.70;58.70;;;;;;5093564;28;20024;-38
2022/05/16 04:30:09;;;;;;;5.82;2.60;;;17.60;58.70;;;;;;5093455;28;20035;-36
2022/05/16 04:32:35;;;;;;;4.20;1.90;;;17.60;58.80;;;;;;5093237;28;20028;-36
2022/05/16 04:35:01;;;;;;;7.50;2.42;;;17.60;58.80;;;;;;5093455;28;20115;-39
2022/05/16 04:37:32;;;;;;;6.45;2.25;;;17.70;58.90;;;;;;5093386;28;20160;-39
2022/05/16 04:40:01;;;;;;;4.72;2.15;;;17.60;58.90;;;;;;5093777;28;20142;-39
2022/05/16 04:42:42;;;;;;;5.97;2.13;;;17.70;59.00;;;;;;5093522;28;20035;-37
2022/05/16 04:45:11;;;;;;;6.00;2.28;;;17.70;59.00;;;;;;5093656;28;20559;-38
2022/05/16 04:47:36;;;;;;;6.03;2.40;;;17.60;59.00;;;;;;5093609;28;20468;-39
2022/05/16 04:50:04;;;;;;;9.52;2.58;;;17.60;59.00;;;;;;5092845;28;20104;-39
2022/05/16 04:52:29;;;;;;;5.30;2.28;;;17.70;59.10;;;;;;5092074;28;20078;-38
2022/05/16 04:54:55;;;;;;;5.55;2.50;;;17.70;59.10;;;;;;5093254;28;20460;-37
2022/05/16 04:57:21;;;;;;;7.18;2.50;;;17.70;59.00;;;;;;5093128;28;20055;-39
2022/05/16 04:59:49;;;;;;;6.55;2.38;;;17.70;59.10;;;;;;5093158;28;20499;-38
2022/05/16 05:02:16;;;;;;;4.63;2.42;;;17.80;59.10;;;;;;5093316;28;20099;-39
2022/05/16 05:04:42;;;;;;;5.47;2.05;;;17.80;59.10;;;;;;5093119;28;20079;-39
2022/05/16 05:07:08;;;;;;;4.18;2.33;;;17.80;59.20;;;;;;5093662;28;20020;-38
2022/05/16 05:14:31;;;;;;;4.70;2.30;;;17.80;59.20;;;;;;5093149;28;20050;-38
2022/05/16 05:15:04;;;;;;;6.18;2.50;;;17.80;59.20;;;;;;5093298;28;20139;-39
2022/05/16 05:17:29;;;;;;;5.57;2.53;;;17.80;59.20;;;;;;5092878;28;20104;-37
2022/05/16 05:19:55;;;;;;;6.68;2.30;;;17.90;59.20;;;;;;5092605;28;20020;-39
2022/05/16 05:22:20;;;;;;;8.52;3.03;;;17.90;59.20;;;;;;5092629;28;20486;-46
2022/05/16 05:24:46;;;;;;;5.85;2.63;;;17.90;59.20;;;;;;5092488;28;20024;-39
2022/05/16 05:27:11;;;;;;;7.00;2.60;;;18.00;59.30;;;;;;5091198;28;20051;-38
2022/05/16 05:29:37;;;;;;;6.32;2.60;;;18.00;59.30;;;;;;5092497;28;20108;-36
2022/05/16 05:32:05;;;;;;;4.72;2.50;;;18.00;59.30;;;;;;5092801;28;20027;-39
2022/05/16 05:34:31;;;;;;;8.48;2.55;;;18.10;59.30;;;;;;5092795;28;20020;-38
2022/05/16 05:36:56;;;;;;;6.78;2.42;;;18.10;59.30;;;;;;5092733;28;20024;-38
2022/05/16 05:39:22;;;;;;;6.18;2.90;;;18.20;59.30;;;;;;5093157;28;20032;-39
2022/05/16 05:41:47;;;;;;;7.60;2.95;;;18.20;59.20;;;;;;5092481;28;20061;-39
2022/05/16 05:44:13;;;;;;;5.95;2.72;;;18.20;59.10;;;;;;5092265;28;20028;-40
2022/05/16 05:46:41;;;;;;;5.15;2.53;;;18.30;59.10;;;;;;5092466;28;20035;-40
2022/05/16 05:49:07;;;;;;;5.72;2.40;;;18.40;59.20;;;;;;5092260;28;20056;-38
2022/05/16 05:51:33;;;;;;;6.95;2.63;;;18.40;59.10;;;;;;5092638;28;20097;-37
2022/05/16 05:53:58;;;;;;;5.38;2.47;;;18.40;59.00;;;;;;5092300;28;20073;-39
2022/05/16 05:56:24;;;;;;;5.97;2.85;;;18.50;59.00;;;;;;5092193;28;20036;-37
2022/05/16 05:58:50;;;;;;;8.93;2.90;;;18.50;59.00;;;;;;5092025;28;20131;-39
2022/05/16 06:01:15;;;;;;;5.32;2.85;;;18.50;59.00;;;;;;5093479;28;20020;-39
2022/05/16 06:03:41;;;;;;;7.07;2.90;;;18.60;59.70;;;;;;5096744;28;20038;-39
2022/05/16 06:06:06;;;;;;;5.55;2.60;;;18.60;59.00;;;;;;5096384;28;20031;-38
2022/05/16 06:08:32;;;;;;;8.68;2.63;;;18.60;59.00;;;;;;5096342;28;20027;-38
2022/05/16 06:10:58;;;;;;;5.97;2.60;;;18.60;58.90;;;;;;5097086;28;20024;-37
2022/05/16 06:13:24;;;;;;;6.30;2.83;;;18.70;58.90;;;;;;5096718;28;20024;-38
2022/05/16 06:15:49;;;;;;;7.45;2.97;;;18.80;58.80;;;;;;5096224;28;20472;-38
2022/05/16 06:18:15;;;;;;;6.60;2.60;;;19.00;58.70;;;;;;5096482;28;20089;-39
2022/05/16 06:20:40;;;;;;;6.43;2.67;;;19.10;58.50;;;;;;5096087;28;20066;-38
2022/05/16 06:23:06;;;;;;;5.55;2.83;;;19.20;58.40;;;;;;5096099;28;20023;-38
2022/05/16 06:25:39;;;;;;;6.03;2.90;;;19.30;58.30;;;;;;5096160;28;20483;-37
2022/05/16 06:28:14;;;;;;;6.78;2.67;;;19.30;58.20;;;;;;5096145;28;20016;-37
2022/05/16 06:30:43;;;;;;;6.03;2.83;;;19.30;58.30;;;;;;5094479;28;20023;-38
2022/05/16 06:33:09;;;;;;;6.88;3.00;;;19.30;58.30;;;;;;5095896;28;20028;-37
2022/05/16 06:35:36;;;;;;;6.43;2.60;;;19.30;58.40;;;;;;5095767;28;20028;-37
2022/05/16 06:38:08;;;;;;;6.55;3.00;;;19.30;58.50;;;;;;5095921;28;20016;-37
2022/05/16 06:40:34;;;;;;;7.53;3.15;;;19.30;58.50;;;;;;5095754;28;20029;-39
2022/05/16 06:42:59;;;;;;;4.53;2.88;;;19.30;58.50;;;;;;5095792;28;20046;-38
2022/05/16 06:45:25;;;;;;;6.32;2.80;;;19.30;58.50;;;;;;5095716;28;20020;-37
2022/05/16 06:47:50;;;;;;;6.78;3.00;;;19.40;58.60;;;;;;5095783;28;20103;-39
2022/05/16 06:50:16;;;;;;;7.50;3.25;;;19.40;58.60;;;;;;5095491;28;20103;-38
2022/05/16 06:52:43;;;;;;;5.10;3.00;;;19.50;58.60;;;;;;5095539;28;20024;-37
2022/05/16 06:55:09;;;;;;;5.57;2.92;;;19.60;58.50;;;;;;5095583;28;20024;-38
2022/05/16 06:57:37;;;;;;;5.22;2.70;;;19.60;58.40;;;;;;5095300;28;20388;-38
2022/05/16 07:00:06;;;;;;;6.35;3.10;;;19.70;58.30;;;;;;5095432;28;20012;-38
2022/05/16 07:02:32;;;;;;;5.03;2.95;;;19.90;58.20;;;;;;5095795;28;20020;-37
2022/05/16 07:04:58;;;;;;;9.20;3.17;;;20.00;58.10;;;;;;5094209;28;20421;-39
2022/05/16 07:07:23;;;;;;;8.35;3.13;;;20.10;57.90;;;;;;5095386;28;20126;-37
2022/05/16 07:09:49;;;;;;;7.18;3.30;;;20.20;57.80;;;;;;5095433;28;20028;-38
2022/05/16 07:12:15;;;;;;;6.35;3.13;;;20.20;57.70;;;;;;5095144;28;20078;-40
2022/05/16 07:14:41;;;;;;;6.25;2.97;;;20.20;57.60;;;;;;5094658;28;20020;-37
2022/05/16 07:17:07;;;;;;;6.97;3.33;;;20.30;57.60;;;;;;5095210;28;20020;-38
2022/05/16 07:19:35;;;;;;;5.20;2.75;;;20.30;57.50;;;;;;5093789;28;20111;-38
2022/05/16 07:22:08;;;;;;;6.18;2.90;;;20.40;57.50;;;;;;5095424;28;20027;-39
2022/05/16 07:24:34;;;;;;;6.15;2.75;;;20.50;57.50;;;;;;5095545;28;20038;-39
2022/05/16 07:29:43;;;;;;;5.55;2.70;;;20.70;57.30;;;;;;5095103;28;20497;-39
2022/05/16 07:32:11;;;;;;;4.55;2.58;;;20.80;57.00;;;;;;5095344;28;20012;-38
2022/05/16 07:34:37;;;;;;;9.13;3.20;;;20.90;56.80;;;;;;5094972;28;20020;-38
2022/05/16 07:37:03;;;;;;;8.95;2.80;;;21.10;56.70;;;;;;5095046;28;20036;-38
2022/05/16 07:39:29;;;;;;;7.97;3.10;;;21.20;56.60;;;;;;5094895;28;20023;-38
2022/05/16 07:41:54;;;;;;;7.53;2.47;;;21.30;56.40;;;;;;5094869;28;20031;-39
2022/05/16 07:44:20;;;;;;;7.05;2.90;;;21.40;56.30;;;;;;5094782;28;20095;-39
2022/05/16 07:46:46;;;;;;;6.60;3.20;;;21.50;56.20;;;;;;5094834;28;20030;-38
2022/05/16 07:49:13;;;;;;;6.13;3.13;;;21.60;56.10;;;;;;5094981;28;20032;-39
2022/05/16 07:51:39;;;;;;;6.28;2.47;;;21.70;56.00;;;;;;5094826;28;20042;-39
2022/05/16 07:54:05;;;;;;;5.53;2.50;;;21.60;56.00;;;;;;5094655;28;20597;-38
2022/05/16 07:56:33;;;;;;;5.85;2.97;;;21.60;56.50;;;;;;5093268;28;20025;-39
2022/05/16 07:58:58;;;;;;;3.88;2.40;;;21.60;56.90;;;;;;5094489;28;20044;-38
2022/05/16 08:01:24;;;;;;;7.63;2.97;;;21.50;57.20;;;;;;5094671;28;20402;-39
2022/05/16 08:03:50;;;;;;;5.13;2.60;;;21.50;57.50;;;;;;5094503;28;20373;-40
2022/05/16 08:06:15;;;;;;;5.38;3.03;;;21.50;57.60;;;;;;5094453;28;20032;-38
2022/05/16 08:11:25;;;;;;;7.13;3.22;;;21.60;57.90;;;;;;5094287;28;20117;-37
2022/05/16 08:13:51;;;;;;;5.95;2.92;;;21.70;57.80;;;;;;5094457;28;20471;-39
2022/05/16 08:16:16;;;;;;;8.27;3.20;;;21.70;57.50;;;;;;5094348;28;20032;-38
2022/05/16 08:18:42;;;;;;;6.90;2.88;;;21.80;57.40;;;;;;5093908;28;20053;-38
2022/05/16 08:21:10;;;;;;;6.55;2.60;;;21.90;57.30;;;;;;5093978;28;20028;-38
2022/05/16 08:23:36;;;;;;;8.98;2.90;;;21.90;57.10;;;;;;5094232;28;20027;-37
2022/05/16 08:26:04;;;;;;;4.13;2.55;;;22.00;57.00;;;;;;5093070;28;20471;-39
2022/05/16 08:28:33;;;;;;;7.75;3.58;;;22.10;56.80;;;;;;5094234;28;20027;-39
2022/05/16 08:30:59;;;;;;;3.80;2.50;;;22.30;56.80;;;;;;5094001;28;20097;-39
2022/05/16 08:33:25;;;;;;;6.38;2.60;;;22.40;56.60;;;;;;5093870;28;20028;-38
2022/05/16 08:41:27;;;;;;;3.90;2.40;;;22.50;55.70;;;;;;5093844;28;20493;-39
2022/05/16 08:44:08;;;;;;;6.00;2.55;;;22.60;55.60;;;;;;5093664;28;20499;-38
2022/05/16 08:46:55;;;;;;;3.92;2.00;;;22.60;55.50;;;;;;5093810;28;20510;-48
2022/05/16 08:49:31;;;;;;;5.20;2.45;;;22.70;55.30;;;;;;5093698;28;20468;-39
2022/05/16 08:52:33;;;;;;;5.90;2.85;;;22.70;55.20;;;;;;5093372;28;20024;-39
2022/05/16 08:55:24;;;;;;;6.03;2.30;;;22.70;55.20;;;;;;5093299;28;20031;-39
2022/05/16 08:58:12;;;;;;;5.00;2.35;;;22.60;55.30;;;;;;5092922;28;20044;-38
2022/05/16 09:00:52;;;;;;;5.32;2.53;;;22.60;55.40;;;;;;5093084;28;20486;-38
2022/05/16 09:03:33;;;;;;;5.90;2.50;;;22.60;55.60;;;;;;5093115;28;20024;-38
2022/05/16 09:06:03;;;;;;;5.50;2.42;;;22.70;55.70;;;;;;5093307;28;20441;-41
2022/05/16 09:08:42;;;;;;;4.57;2.30;;;22.80;55.70;;;;;;5093070;28;20391;-37
2022/05/16 09:11:18;;;;;;;7.32;3.05;;;22.90;55.70;;;;;;5093051;28;20085;-44
2022/05/16 09:13:57;;;;;;;3.95;2.47;;;23.00;55.50;;;;;;5093465;28;20027;-38
2022/05/16 09:16:53;;;;;;;5.70;3.08;;;23.20;55.40;;;;;;5091693;28;20032;-38
2022/05/16 09:19:52;;;;;;;4.93;2.40;;;23.30;55.30;;;;;;5093053;28;20020;-39
2022/05/16 09:22:32;;;;;;;5.72;2.55;;;23.50;55.00;;;;;;5092695;28;20073;-42
2022/05/16 09:25:18;;;;;;;5.43;2.08;;;23.70;54.90;;;;;;5092665;28;20552;-42
2022/05/16 09:30:34;;;;;;;4.18;2.20;;;23.90;54.10;;;;;;5092646;28;20059;-38
2022/05/16 09:33:06;;;;;;;3.75;2.30;;;24.00;53.90;;;;;;5092522;28;20017;-39
2022/05/16 09:35:37;;;;;;;5.15;2.15;;;24.30;53.80;;;;;;5092176;28;20024;-37
2022/05/16 09:38:04;;;;;;;5.03;2.28;;;24.40;53.30;;;;;;5092441;28;20031;-38
2022/05/16 09:40:39;;;;;;;5.55;2.63;;;24.60;53.10;;;;;;5092565;28;20016;-38
2022/05/16 09:43:20;;;;;;;4.13;2.42;;;24.70;52.90;;;;;;5092138;28;20049;-39
2022/05/16 09:45:52;;;;;;;3.22;2.05;;;24.80;52.60;;;;;;5092157;28;20016;-38
2022/05/16 09:48:21;;;;;;;4.60;2.35;;;24.90;52.40;;;;;;5092303;28;20028;-37
2022/05/16 09:51:00;;;;;;;5.60;2.30;;;24.90;52.20;;;;;;5092082;28;20043;-37
2022/05/16 09:53:36;;;;;;;4.38;2.20;;;24.90;52.20;;;;;;5092221;28;20024;-38
2022/05/16 09:56:16;;;;;;;3.55;2.05;;;24.90;52.20;;;;;;5074166;28;20036;-37
2022/05/16 09:58:50;;;;;;;4.93;2.72;;;24.90;52.20;;;;;;5091858;28;20072;-38
2022/05/16 10:01:33;;;;;;;3.58;2.17;;;24.90;52.20;;;;;;5092425;28;20068;-37
2022/05/16 10:04:14;;;;;;;4.55;2.72;;;24.80;52.20;;;;;;5092157;28;20032;-38
2022/05/16 10:06:44;;;;;;;4.15;2.33;;;24.70;52.10;;;;;;5092371;28;20471;-37
2022/05/16 10:09:27;;;;;;;4.07;2.15;;;24.70;52.20;;;;;;5092157;28;20035;-38
2022/05/16 10:11:53;;;;;;;4.93;1.90;;;24.70;52.20;;;;;;5092261;28;20111;-37
2022/05/16 10:14:19;;;;;;;3.33;2.30;;;24.70;52.20;;;;;;5090588;28;20036;-36
2022/05/16 10:16:49;;;;;;;3.97;1.98;;;24.80;52.10;;;;;;5092060;28;20067;-37
2022/05/16 10:19:18;;;;;;;5.05;2.30;;;25.00;52.00;;;;;;5092217;28;20040;-37
2022/05/16 10:21:56;;;;;;;3.83;2.10;;;25.00;51.90;;;;;;5092214;28;20099;-39
2022/05/16 10:24:27;;;;;;;2.45;1.80;;;25.10;51.90;;;;;;5091968;28;20016;-37
2022/05/16 10:26:55;;;;;;;3.35;1.70;;;25.20;51.90;;;;;;5090829;28;20043;-38
2022/05/16 10:29:25;;;;;;;5.82;1.90;;;25.20;51.70;;;;;;5092370;28;20527;-45
2022/05/16 10:35:12;;;;;;;3.33;1.77;;;25.60;51.80;;;;;;5092277;28;20093;-38
2022/05/16 10:37:42;;;;;;;5.40;2.13;;;25.80;51.50;;;;;;5091867;28;20024;-38
2022/05/16 10:40:28;;;;;;;4.78;2.10;;;25.90;51.30;;;;;;5091838;28;20028;-38
2022/05/16 10:43:08;;;;;;;4.10;2.08;;;26.10;51.10;;;;;;5090927;28;20093;-39
2022/05/16 10:45:35;;;;;;;3.00;2.10;;;26.20;50.90;;;;;;5091724;28;20035;-38
2022/05/16 10:48:08;;;;;;;3.83;2.17;;;26.30;50.70;;;;;;5092574;28;20450;-37
2022/05/16 10:51:00;;;;;;;5.60;2.00;;;26.30;50.70;;;;;;5094808;28;20027;-38
2022/05/16 10:53:36;;;;;;;3.25;2.10;;;26.40;50.70;;;;;;5096264;28;20020;-38
2022/05/16 10:56:24;;;;;;;3.63;2.10;;;26.40;50.40;;;;;;5095626;28;20047;-39
2022/05/16 10:58:58;;;;;;;3.47;2.10;;;26.60;50.20;;;;;;5093979;28;20044;-44
2022/05/16 11:01:40;;;;;;;3.53;2.17;;;26.60;50.10;;;;;;5095416;28;20104;-39
2022/05/16 11:04:34;;;;;;;4.35;1.75;;;26.70;49.90;;;;;;5095723;28;20050;-37
2022/05/16 11:07:22;;;;;;;3.60;1.70;;;26.70;49.90;;;;;;5095353;28;20075;-38
2022/05/16 11:09:53;;;;;;;4.43;2.40;;;26.90;49.90;;;;;;5095188;28;20028;-38
2022/05/16 11:12:31;;;;;;;5.57;2.30;;;27.00;49.50;;;;;;5095268;28;20036;-39
2022/05/16 11:15:06;;;;;;;2.85;1.92;;;27.10;49.30;;;;;;5095464;28;20082;-38
2022/05/16 11:17:37;;;;;;;3.28;2.05;;;27.20;49.10;;;;;;5095467;28;20424;-42
2022/05/16 11:20:04;;;;;;;5.32;2.20;;;27.30;49.00;;;;;;5095335;28;20522;-38
2022/05/16 11:22:37;;;;;;;4.45;2.00;;;27.20;48.70;;;;;;5095348;28;20110;-37
2022/05/16 11:25:19;;;;;;;4.78;2.40;;;27.20;48.80;;;;;;5095175;28;20031;-37
2022/05/16 11:28:14;;;;;;;6.23;2.27;;;27.10;48.70;;;;;;5095297;28;20036;-37
2022/05/16 11:31:03;;;;;;;2.95;1.98;;;27.10;48.80;;;;;;5095232;28;20020;-38
2022/05/16 11:33:45;;;;;;;3.42;2.08;;;27.10;48.90;;;;;;5095149;28;20046;-37
2022/05/16 11:36:25;;;;;;;4.93;2.70;;;27.00;48.90;;;;;;5094938;28;20066;-37
2022/05/16 11:39:10;;;;;;;4.35;2.20;;;26.90;49.10;;;;;;5094836;28;20028;-38
2022/05/16 11:42:01;;;;;;;4.65;2.70;;;26.90;49.20;;;;;;5094928;28;20387;-37
2022/05/16 11:44:42;;;;;;;4.10;2.50;;;26.90;49.10;;;;;;5095004;28;20059;-39
2022/05/16 11:47:16;;;;;;;5.30;2.30;;;26.80;49.20;;;;;;5095102;28;20040;-39
2022/05/16 11:50:00;;;;;;;5.03;2.50;;;26.70;49.30;;;;;;5094862;28;20028;-39
2022/05/16 11:52:32;;;;;;;4.25;2.25;;;26.70;49.40;;;;;;5094860;28;20463;-39
2022/05/16 12:01:00;;;;;;;4.05;2.30;;;26.40;49.90;;;;;;5094469;28;20126;-39
2022/05/16 12:04:12;;;;;;;5.07;2.65;;;26.30;50.40;;;;;;5094256;28;20496;-39
2022/05/16 12:06:48;;;;;;;7.38;2.10;;;26.10;51.30;;;;;;5074061;28;20040;-37
2022/05/16 12:09:17;;;;;;;3.78;2.45;;;26.00;52.10;;;;;;5094366;28;20081;-40
2022/05/16 12:11:56;;;;;;;5.15;2.72;;;25.80;52.80;;;;;;5093936;28;20074;-38
2022/05/16 12:14:29;;;;;;;4.15;3.00;;;25.60;53.90;;;;;;5093938;28;20039;-39
2022/05/16 12:17:16;;;;;;;4.88;3.10;;;25.40;54.50;;;;;;5094157;28;20035;-38
2022/05/16 12:19:46;;;;;;;4.70;2.70;;;25.40;55.10;;;;;;5093817;28;20131;-39
2022/05/16 12:22:32;;;;;;;8.98;2.90;;;25.30;55.60;;;;;;5093993;28;20028;-39
2022/05/16 12:25:01;;;;;;;6.22;2.80;;;25.20;56.80;;;;;;5094117;28;20046;-38
2022/05/16 12:27:30;;;;;;;7.70;3.42;;;25.10;57.30;;;;;;5093761;28;20097;-39
2022/05/16 12:30:01;;;;;;;4.40;2.88;;;25.00;58.40;;;;;;5093833;28;20042;-44
2022/05/16 12:32:30;;;;;;;5.28;3.67;;;24.90;58.90;;;;;;5092439;28;20102;-38
2022/05/16 12:35:08;;;;;;;6.05;2.92;;;24.80;59.50;;;;;;5093946;28;20120;-38
2022/05/16 12:37:36;;;;;;;5.93;3.33;;;24.70;59.60;;;;;;5094115;28;20395;-39
2022/05/16 12:40:13;;;;;;;4.20;2.78;;;24.60;60.10;;;;;;5093912;28;20024;-39
2022/05/16 12:42:54;;;;;;;4.15;3.20;;;24.50;60.30;;;;;;5093858;28;20102;-39
2022/05/16 12:45:31;;;;;;;5.45;3.63;;;24.40;60.70;;;;;;5093907;28;20112;-39
2022/05/16 12:48:57;;;;;;;6.50;3.72;;;24.30;60.90;;;;;;5093909;28;20387;-39
2022/05/16 12:51:50;;;;;;;6.85;3.53;;;24.20;61.20;;;;;;5075650;28;20044;-39
2022/05/16 12:54:22;;;;;;;4.18;2.78;;;24.10;61.70;;;;;;5093479;28;20042;-39
2022/05/16 12:56:53;;;;;;;4.00;2.50;;;24.10;61.60;;;;;;5093283;28;20503;-38
2022/05/16 12:59:48;;;;;;;4.80;2.67;;;24.10;61.60;;;;;;5093055;28;20048;-39
2022/05/16 13:02:15;;;;;;;3.90;2.75;;;24.10;61.60;;;;;;5093512;28;20056;-38
2022/05/16 13:05:02;;;;;;;6.18;3.50;;;24.10;61.60;;;;;;5091973;28;20501;-38
2022/05/16 13:07:54;;;;;;;4.88;3.58;;;24.00;62.10;;;;;;5093317;28;20479;-37
2022/05/16 13:10:39;;;;;;;7.13;3.90;;;23.90;62.40;;;;;;5093133;28;20044;-39
2022/05/16 13:13:37;;;;;;;6.72;4.20;;;23.80;62.90;;;;;;5093149;28;20395;-38
2022/05/16 13:16:21;;;;;;;4.60;3.50;;;23.70;63.60;;;;;;5093186;28;20082;-39
2022/05/16 13:18:58;;;;;;;5.85;4.20;;;23.80;63.70;;;;;;5092735;28;20077;-39
2022/05/16 13:21:38;;;;;;;7.15;4.60;;;23.90;63.60;;;;;;5092817;28;20028;-39
2022/05/16 13:24:13;;;;;;;4.85;4.22;;;24.00;63.60;;;;;;5092705;28;20103;-39
2022/05/16 13:29:23;;;;;;;6.75;5.50;;;24.20;63.40;;;;;;5093312;28;20047;-39
2022/05/16 13:31:53;;;;;;;7.22;6.05;;;24.10;63.90;;;;;;5092862;28;20034;-39
2022/05/16 13:34:33;;;;;;;6.38;5.72;;;24.10;64.20;;;;;;5093082;28;20543;-38
2022/05/16 13:37:00;;;;;;;9.00;5.70;;;23.90;63.90;;;;;;5092612;28;20044;-39
2022/05/16 13:39:26;;;;;;;7.93;5.40;;;23.80;63.70;;;;;;5092944;28;20536;-41
2022/05/16 13:41:58;;;;;;;6.65;5.95;;;23.70;63.50;;;;;;5092785;28;20024;-39
2022/05/16 13:44:24;;;;;;;8.32;5.65;;;23.60;63.60;;;;;;5092715;28;20032;-38
2022/05/16 13:46:54;;;;;;;10.00;6.20;;;23.40;63.90;;;;;;5092738;28;20454;-39